createdAt,value
2022-10-29T00:00:04.179Z,13.28
2022-10-29T00:01:04.148Z,13.28
2022-10-29T00:02:04.270Z,13.21
2022-10-29T00:03:04.242Z,13.09
2022-10-29T00:04:04.086Z,13.03
2022-10-29T00:05:04.087Z,13.06
2022-10-29T00:06:04.114Z,13.03
2022-10-29T00:07:04.060Z,13.09
2022-10-29T00:08:04.058Z,13.01
2022-10-29T00:09:04.065Z,12.94
2022-10-29T00:10:04.024Z,12.95
2022-10-29T00:11:04.046Z,12.84
2022-10-29T00:12:04.002Z,12.76
2022-10-29T00:13:04.014Z,12.76
2022-10-29T00:14:03.976Z,12.63
2022-10-29T00:15:03.992Z,12.70
2022-10-29T00:16:03.976Z,12.58
2022-10-29T00:17:03.951Z,12.59
2022-10-29T00:18:03.959Z,12.55
2022-10-29T00:19:03.964Z,12.54
2022-10-29T00:20:04.049Z,12.55
2022-10-29T00:21:03.921Z,12.51
2022-10-29T00:22:03.892Z,12.62
2022-10-29T00:23:03.885Z,12.49
2022-10-29T00:24:03.878Z,12.56
2022-10-29T00:26:41.525Z,12.48
2022-10-29T00:27:41.492Z,12.56
2022-10-29T00:28:41.493Z,12.59
2022-10-29T00:29:41.471Z,12.59
2022-10-29T00:30:41.473Z,12.63
2022-10-29T00:31:41.584Z,12.49
2022-10-29T00:32:41.469Z,12.44
2022-10-29T00:33:41.435Z,12.63
2022-10-29T00:34:41.490Z,12.49
2022-10-29T00:35:41.442Z,12.54
2022-10-29T00:36:41.425Z,12.56
2022-10-29T00:37:41.434Z,12.63
2022-10-29T00:38:41.387Z,12.69
2022-10-29T00:39:41.369Z,12.69
2022-10-29T00:40:41.418Z,12.74
2022-10-29T00:41:41.362Z,12.80
2022-10-29T00:42:41.346Z,12.95
2022-10-29T00:43:41.337Z,12.94
2022-10-29T00:44:41.314Z,12.87
2022-10-29T00:45:41.309Z,12.91
2022-10-29T00:46:41.354Z,12.84
2022-10-29T00:47:41.304Z,12.80
2022-10-29T00:48:41.315Z,12.89
2022-10-29T00:49:41.260Z,12.92
2022-10-29T00:50:41.251Z,12.87
2022-10-29T00:51:41.236Z,12.81
2022-10-29T00:52:41.295Z,12.85
2022-10-29T00:53:41.218Z,12.81
2022-10-29T00:54:41.230Z,12.77
2022-10-29T00:55:41.204Z,12.81
2022-10-29T00:56:41.187Z,12.76
2022-10-29T00:57:41.177Z,12.70
2022-10-29T00:58:41.163Z,12.71
2022-10-29T00:59:41.244Z,12.67
2022-10-29T01:00:41.159Z,12.61
2022-10-29T01:01:41.242Z,12.63
2022-10-29T01:02:41.251Z,12.55
2022-10-29T01:03:41.124Z,12.55
2022-10-29T01:04:41.127Z,12.76
2022-10-29T01:05:41.086Z,12.84
2022-10-29T01:06:41.125Z,12.87
2022-10-29T01:07:41.135Z,12.85
2022-10-29T01:08:41.082Z,12.85
2022-10-29T01:09:41.094Z,12.84
2022-10-29T01:10:41.050Z,12.87
2022-10-29T01:11:41.043Z,12.94
2022-10-29T01:12:41.017Z,12.95
2022-10-29T01:13:41.045Z,12.99
2022-10-29T01:14:41.017Z,13.01
2022-10-29T01:15:40.994Z,13.16
2022-10-29T01:16:40.984Z,13.24
2022-10-29T01:17:40.955Z,13.43
2022-10-29T01:18:41.035Z,13.38
2022-10-29T01:19:40.960Z,13.73
2022-10-29T01:20:40.923Z,14.13
2022-10-29T01:21:40.946Z,14.35
2022-10-29T01:22:40.930Z,14.61
2022-10-29T01:23:40.902Z,14.83
2022-10-29T01:24:40.925Z,14.85
2022-10-29T01:25:40.895Z,14.94
2022-10-29T01:26:40.864Z,15.12
2022-10-29T01:27:40.856Z,15.19
2022-10-29T01:28:40.881Z,15.18
2022-10-29T01:29:40.839Z,15.07
2022-10-29T01:30:40.814Z,15.04
2022-10-29T01:31:40.848Z,14.80
2022-10-29T01:32:40.810Z,14.85
2022-10-29T01:33:40.786Z,14.83
2022-10-29T01:34:40.846Z,14.72
2022-10-29T01:35:40.800Z,14.63
2022-10-29T01:36:40.754Z,14.64
2022-10-29T01:37:40.756Z,14.48
2022-10-29T01:38:40.781Z,14.45
2022-10-29T01:39:40.741Z,14.49
2022-10-29T01:40:40.742Z,14.23
2022-10-29T01:41:40.706Z,14.29
2022-10-29T01:42:40.685Z,14.16
2022-10-29T01:43:40.692Z,14.11
2022-10-29T01:44:40.663Z,14.06
2022-10-29T01:45:40.682Z,14.02
2022-10-29T01:46:40.686Z,13.94
2022-10-29T01:47:40.635Z,13.91
2022-10-29T01:48:40.631Z,13.96
2022-10-29T01:49:40.623Z,13.81
2022-10-29T01:50:40.636Z,13.66
2022-10-29T01:51:40.597Z,13.69
2022-10-29T01:52:40.611Z,13.51
2022-10-29T01:53:40.576Z,13.46
2022-10-29T01:54:40.568Z,13.46
2022-10-29T01:55:40.579Z,13.46
2022-10-29T01:56:40.554Z,13.39
2022-10-29T01:57:40.532Z,13.32
2022-10-29T01:58:40.515Z,13.22
2022-10-29T01:59:54.956Z,13.16
2022-10-29T02:00:41.626Z,13.10
2022-10-29T02:05:52.593Z,13.31
2022-10-29T02:06:43.838Z,13.38
2022-10-29T02:07:43.806Z,13.36
2022-10-29T02:08:43.824Z,13.43
2022-10-29T02:09:43.795Z,13.39
2022-10-29T02:10:43.812Z,13.36
2022-10-29T02:11:43.830Z,13.31
2022-10-29T02:12:43.753Z,13.32
2022-10-29T02:13:43.739Z,13.38
2022-10-29T02:14:43.827Z,13.24
2022-10-29T02:15:43.724Z,13.27
2022-10-29T02:16:43.728Z,13.31
2022-10-29T02:17:43.707Z,13.27
2022-10-29T02:18:43.693Z,13.41
2022-10-29T02:19:43.726Z,13.38
2022-10-29T02:20:43.758Z,13.39
2022-10-29T02:21:43.661Z,13.35
2022-10-29T02:22:43.770Z,13.35
2022-10-29T02:23:43.650Z,13.38
2022-10-29T02:24:43.656Z,13.38
2022-10-29T02:25:43.716Z,13.36
2022-10-29T02:26:43.625Z,13.41
2022-10-29T02:27:43.656Z,13.38
2022-10-29T02:28:43.579Z,13.39
2022-10-29T02:29:43.588Z,13.36
2022-10-29T02:30:43.549Z,13.36
2022-10-29T02:31:43.564Z,13.39
2022-10-29T02:32:43.538Z,13.63
2022-10-29T02:33:43.569Z,13.59
2022-10-29T02:34:43.560Z,13.62
2022-10-29T02:35:43.503Z,13.68
2022-10-29T02:36:43.508Z,13.61
2022-10-29T02:37:43.571Z,13.61
2022-10-29T02:38:43.499Z,13.65
2022-10-29T02:39:43.471Z,13.66
2022-10-29T02:40:43.514Z,13.59
2022-10-29T02:41:43.452Z,13.55
2022-10-29T02:42:43.465Z,13.84
2022-10-29T02:43:43.466Z,14.02
2022-10-29T02:44:43.440Z,14.11
2022-10-29T02:45:43.387Z,14.23
2022-10-29T02:46:43.453Z,14.38
2022-10-29T02:47:43.381Z,14.41
2022-10-29T02:48:43.389Z,14.39
2022-10-29T02:49:43.347Z,14.27
2022-10-29T02:50:43.381Z,14.29
2022-10-29T02:51:43.341Z,14.17
2022-10-29T02:52:43.369Z,14.04
2022-10-29T02:53:43.343Z,13.91
2022-10-29T02:54:43.297Z,13.90
2022-10-29T02:55:43.324Z,13.75
2022-10-29T02:56:43.357Z,13.63
2022-10-29T02:57:43.276Z,13.54
2022-10-29T02:58:43.295Z,13.51
2022-10-29T02:59:43.289Z,13.54
2022-10-29T03:00:43.315Z,13.90
2022-10-29T03:01:43.370Z,14.31
2022-10-29T03:02:43.351Z,14.52
2022-10-29T03:03:43.199Z,14.67
2022-10-29T03:04:43.228Z,14.97
2022-10-29T03:05:48.072Z,15.12
2022-10-29T03:06:44.184Z,15.01
2022-10-29T03:07:43.150Z,14.93
2022-10-29T03:08:43.178Z,14.79
2022-10-29T03:09:43.179Z,14.57
2022-10-29T03:10:43.117Z,14.44
2022-10-29T03:11:43.109Z,14.30
2022-10-29T03:12:43.117Z,14.16
2022-10-29T03:13:43.229Z,14.17
2022-10-29T03:14:43.138Z,14.16
2022-10-29T03:15:43.097Z,14.34
2022-10-29T03:16:43.101Z,14.41
2022-10-29T03:17:43.075Z,14.60
2022-10-29T03:18:43.032Z,14.94
2022-10-29T03:19:43.039Z,15.05
2022-10-29T03:20:43.020Z,15.12
2022-10-29T03:21:43.070Z,15.16
2022-10-29T03:22:43.023Z,15.20
2022-10-29T03:23:43.005Z,15.19
2022-10-29T03:24:43.039Z,15.27
2022-10-29T03:25:42.960Z,15.35
2022-10-29T03:26:42.959Z,15.38
2022-10-29T03:27:42.949Z,15.51
2022-10-29T03:28:42.993Z,15.73
2022-10-29T03:29:42.952Z,15.76
2022-10-29T03:30:42.922Z,15.64
2022-10-29T03:31:42.931Z,15.85
2022-10-29T03:32:42.875Z,15.77
2022-10-29T03:33:42.873Z,15.74
2022-10-29T03:34:42.902Z,15.56
2022-10-29T03:35:42.984Z,15.70
2022-10-29T03:36:42.861Z,15.67
2022-10-29T03:37:42.843Z,15.49
2022-10-29T03:38:42.809Z,14.90
2022-10-29T03:39:42.826Z,14.85
2022-10-29T03:40:42.857Z,15.33
2022-10-29T03:41:42.843Z,15.38
2022-10-29T03:42:42.798Z,15.51
2022-10-29T03:43:42.845Z,15.41
2022-10-29T03:44:42.758Z,15.16
2022-10-29T03:45:42.736Z,14.79
2022-10-29T03:46:42.760Z,14.53
2022-10-29T03:47:42.768Z,14.38
2022-10-29T03:48:42.746Z,14.21
2022-10-29T03:49:42.693Z,14.04
2022-10-29T03:50:42.712Z,14.01
2022-10-29T03:51:42.692Z,13.88
2022-10-29T03:52:42.672Z,13.68
2022-10-29T03:53:42.672Z,13.63
2022-10-29T03:54:42.639Z,13.54
2022-10-29T03:55:42.664Z,13.24
2022-10-29T03:56:42.634Z,13.25
2022-10-29T03:57:42.688Z,13.03
2022-10-29T03:58:42.625Z,12.95
2022-10-29T03:59:44.095Z,12.89
2022-10-29T04:00:42.591Z,12.77
2022-10-29T04:01:42.734Z,12.73
2022-10-29T04:02:42.814Z,12.70
2022-10-29T04:03:42.660Z,12.66
2022-10-29T04:04:42.597Z,12.59
2022-10-29T04:05:42.585Z,12.59
2022-10-29T04:06:42.577Z,12.54
2022-10-29T04:07:42.588Z,12.40
2022-10-29T04:08:42.499Z,12.40
2022-10-29T04:09:42.537Z,12.23
2022-10-29T04:10:42.518Z,12.22
2022-10-29T04:11:42.462Z,12.15
2022-10-29T04:12:42.480Z,12.00
2022-10-29T04:13:42.451Z,12.12
2022-10-29T04:14:45.422Z,12.15
2022-10-29T04:15:42.410Z,12.05
2022-10-29T04:16:42.428Z,12.04
2022-10-29T04:17:42.401Z,11.98
2022-10-29T04:18:42.444Z,11.88
2022-10-29T04:19:42.441Z,11.98
2022-10-29T04:21:31.233Z,12.01
2022-10-29T04:28:41.197Z,11.75
2022-10-29T04:28:44.160Z,11.59
2022-10-29T04:29:42.269Z,11.87
2022-10-29T04:30:42.281Z,11.93
2022-10-29T04:31:42.237Z,11.87
2022-10-29T04:32:42.247Z,11.70
2022-10-29T04:33:42.265Z,11.69
2022-10-29T04:34:42.217Z,11.69
2022-10-29T04:35:42.213Z,11.70
2022-10-29T04:36:42.182Z,12.19
2022-10-29T04:37:42.168Z,12.49
2022-10-29T04:38:42.177Z,12.71
2022-10-29T04:39:42.149Z,12.76
2022-10-29T04:40:42.134Z,12.98
2022-10-29T04:41:42.252Z,12.89
2022-10-29T04:42:42.115Z,12.76
2022-10-29T04:43:42.124Z,12.67
2022-10-29T04:44:42.124Z,12.56
2022-10-29T04:46:42.064Z,12.34
2022-10-29T04:47:42.096Z,12.21
2022-10-29T04:48:42.129Z,12.15
2022-10-29T04:49:42.028Z,12.08
2022-10-29T04:50:42.020Z,11.90
2022-10-29T04:51:42.024Z,11.78
2022-10-29T04:52:42.004Z,11.79
2022-10-29T04:53:42.067Z,11.75
2022-10-29T04:54:41.988Z,11.54
2022-10-29T04:55:42.027Z,11.54
2022-10-29T04:56:41.978Z,11.56
2022-10-29T04:57:42.077Z,11.64
2022-10-29T04:58:41.948Z,11.63
2022-10-29T04:59:41.932Z,11.66
2022-10-29T05:00:42.009Z,11.60
2022-10-29T05:01:41.928Z,11.59
2022-10-29T05:02:41.931Z,11.56
2022-10-29T05:03:41.902Z,11.44
2022-10-29T05:04:41.871Z,11.39
2022-10-29T05:05:41.852Z,11.62
2022-10-29T05:06:41.900Z,11.48
2022-10-29T05:07:41.873Z,11.45
2022-10-29T05:08:41.865Z,11.44
2022-10-29T05:09:41.818Z,11.36
2022-10-29T05:10:41.805Z,11.23
2022-10-29T05:11:41.808Z,11.20
2022-10-29T05:12:41.796Z,11.21
2022-10-29T05:13:41.783Z,11.35
2022-10-29T05:14:41.838Z,11.41
2022-10-29T05:15:41.752Z,11.60
2022-10-29T05:16:41.793Z,11.97
2022-10-29T05:17:41.797Z,12.16
2022-10-29T05:18:41.770Z,12.36
2022-10-29T05:19:41.724Z,12.70
2022-10-29T05:20:41.752Z,12.74
2022-10-29T05:21:41.703Z,12.71
2022-10-29T05:22:41.703Z,12.76
2022-10-29T05:23:41.673Z,12.85
2022-10-29T05:24:41.686Z,12.91
2022-10-29T05:25:41.653Z,12.84
2022-10-29T05:26:41.635Z,12.77
2022-10-29T05:27:41.619Z,12.76
2022-10-29T05:28:41.677Z,12.58
2022-10-29T05:29:41.619Z,12.54
2022-10-29T05:30:41.763Z,12.38
2022-10-29T05:31:41.587Z,12.36
2022-10-29T05:32:41.598Z,12.40
2022-10-29T05:33:41.564Z,12.81
2022-10-29T05:34:44.449Z,12.87
2022-10-29T05:35:41.532Z,12.89
2022-10-29T05:36:41.532Z,12.80
2022-10-29T05:37:41.509Z,12.59
2022-10-29T05:38:41.578Z,12.62
2022-10-29T05:39:41.497Z,12.56
2022-10-29T05:40:41.475Z,12.54
2022-10-29T05:41:41.504Z,12.37
2022-10-29T05:42:46.383Z,12.40
2022-10-29T05:43:42.504Z,12.55
2022-10-29T05:44:41.437Z,12.80
2022-10-29T05:45:41.451Z,12.62
2022-10-29T05:46:41.401Z,12.56
2022-10-29T05:47:41.402Z,12.51
2022-10-29T05:48:41.499Z,12.56
2022-10-29T05:49:41.385Z,12.36
2022-10-29T05:50:41.396Z,12.52
2022-10-29T05:51:41.422Z,12.38
2022-10-29T05:52:41.345Z,12.73
2022-10-29T05:53:41.502Z,13.13
2022-10-29T05:54:41.370Z,13.41
2022-10-29T05:55:41.377Z,13.66
2022-10-29T05:56:41.330Z,13.90
2022-10-29T05:57:41.305Z,13.96
2022-10-29T05:58:41.383Z,14.17
2022-10-29T05:59:41.283Z,14.06
2022-10-29T06:00:41.305Z,13.91
2022-10-29T06:01:41.415Z,13.57
2022-10-29T06:02:41.339Z,13.46
2022-10-29T06:03:41.313Z,13.16
2022-10-29T06:04:41.272Z,12.98
2022-10-29T06:05:41.239Z,12.85
2022-10-29T06:06:41.320Z,12.67
2022-10-29T06:07:43.202Z,12.46
2022-10-29T06:08:41.232Z,12.44
2022-10-29T06:09:41.195Z,12.33
2022-10-29T06:10:41.178Z,12.13
2022-10-29T06:11:41.155Z,11.98
2022-10-29T06:12:41.116Z,11.93
2022-10-29T06:13:41.183Z,11.82
2022-10-29T06:14:41.183Z,11.69
2022-10-29T06:15:41.142Z,11.57
2022-10-29T06:16:41.076Z,11.57
2022-10-29T06:17:41.114Z,11.54
2022-10-29T06:18:41.074Z,11.54
2022-10-29T06:20:41.111Z,11.42
2022-10-29T06:21:41.018Z,11.39
2022-10-29T06:22:41.014Z,11.33
2022-10-29T06:23:41.102Z,11.27
2022-10-29T06:24:41.036Z,11.26
2022-10-29T06:25:41.065Z,11.26
2022-10-29T06:26:40.969Z,11.27
2022-10-29T06:27:41.025Z,11.30
2022-10-29T06:28:41.024Z,11.28
2022-10-29T06:29:40.960Z,11.27
2022-10-29T06:30:40.953Z,11.35
2022-10-29T06:31:40.914Z,11.38
2022-10-29T06:32:40.901Z,11.39
2022-10-29T06:33:40.978Z,11.49
2022-10-29T06:34:40.975Z,11.49
2022-10-29T06:35:40.865Z,11.62
2022-10-29T06:36:40.873Z,11.56
2022-10-29T06:37:40.858Z,11.39
2022-10-29T06:38:40.875Z,11.49
2022-10-29T06:39:40.827Z,11.51
2022-10-29T06:40:40.896Z,11.54
2022-10-29T06:41:40.867Z,11.54
2022-10-29T06:42:40.905Z,11.56
2022-10-29T06:43:40.894Z,11.54
2022-10-29T06:44:40.803Z,11.60
2022-10-29T06:45:40.794Z,11.57
2022-10-29T06:46:40.746Z,11.60
2022-10-29T06:47:40.786Z,11.67
2022-10-29T06:48:40.786Z,11.70
2022-10-29T06:49:40.754Z,11.78
2022-10-29T06:50:40.741Z,11.79
2022-10-29T06:51:40.744Z,11.93
2022-10-29T06:52:40.690Z,11.96
2022-10-29T06:53:40.728Z,11.97
2022-10-29T06:54:40.754Z,12.03
2022-10-29T06:55:40.716Z,12.05
2022-10-29T06:56:40.636Z,12.16
2022-10-29T06:57:40.634Z,12.16
2022-10-29T06:58:40.714Z,12.16
2022-10-29T06:59:40.626Z,12.26
2022-10-29T07:00:40.679Z,12.16
2022-10-29T07:01:40.653Z,12.26
2022-10-29T07:02:40.626Z,12.23
2022-10-29T07:03:40.650Z,12.30
2022-10-29T07:04:40.567Z,12.30
2022-10-29T07:05:40.686Z,12.21
2022-10-29T07:06:40.566Z,12.33
2022-10-29T07:07:40.531Z,12.40
2022-10-29T07:08:40.685Z,12.38
2022-10-29T07:09:40.496Z,12.41
2022-10-29T07:10:40.518Z,12.51
2022-10-29T07:11:40.568Z,12.54
2022-10-29T07:12:40.463Z,12.55
2022-10-29T07:13:40.594Z,12.63
2022-10-29T07:14:40.451Z,12.73
2022-10-29T07:15:40.447Z,13.03
2022-10-29T07:16:40.479Z,13.04
2022-10-29T07:17:40.399Z,13.36
2022-10-29T07:18:40.440Z,13.65
2022-10-29T07:19:40.496Z,13.63
2022-10-29T07:20:40.473Z,13.81
2022-10-29T07:21:40.378Z,14.06
2022-10-29T07:22:40.353Z,14.36
2022-10-29T07:23:40.408Z,14.45
2022-10-29T07:24:40.405Z,14.54
2022-10-29T07:25:40.318Z,14.74
2022-10-29T07:26:40.442Z,14.97
2022-10-29T07:27:40.400Z,15.43
2022-10-29T07:28:40.302Z,15.74
2022-10-29T07:29:40.401Z,15.91
2022-10-29T07:30:40.308Z,16.10
2022-10-29T07:31:40.299Z,16.34
2022-10-29T07:32:40.273Z,16.44
2022-10-29T07:33:40.333Z,16.84
2022-10-29T07:34:40.247Z,17.06
2022-10-29T07:35:40.237Z,16.99
2022-10-29T07:36:40.229Z,17.30
2022-10-29T07:37:40.179Z,17.40
2022-10-29T07:38:40.421Z,17.68
2022-10-29T07:39:40.195Z,17.66
2022-10-29T07:40:40.174Z,17.57
2022-10-29T07:41:40.204Z,17.60
2022-10-29T07:42:40.135Z,17.79
2022-10-29T07:43:40.251Z,17.89
2022-10-29T07:44:40.169Z,17.95
2022-10-29T07:45:40.152Z,17.86
2022-10-29T07:46:40.087Z,17.71
2022-10-29T07:47:40.098Z,17.43
2022-10-29T07:48:40.124Z,17.45
2022-10-29T07:49:40.111Z,18.01
2022-10-29T07:50:40.093Z,18.07
2022-10-29T07:51:40.058Z,17.91
2022-10-29T07:52:40.051Z,17.66
2022-10-29T07:53:40.018Z,17.76
2022-10-29T07:54:40.054Z,18.13
2022-10-29T07:55:39.988Z,18.16
2022-10-29T07:56:42.399Z,17.84
2022-10-29T07:57:41.034Z,17.96
2022-10-29T07:58:39.980Z,17.98
2022-10-29T07:59:40.001Z,18.04
2022-10-29T08:00:40.036Z,18.21
2022-10-29T08:01:40.065Z,18.21
2022-10-29T08:02:39.933Z,18.38
2022-10-29T08:03:39.940Z,18.54
2022-10-29T08:04:39.929Z,19.15
2022-10-29T08:05:42.551Z,19.34
2022-10-29T08:06:39.895Z,19.24
2022-10-29T08:07:39.858Z,19.38
2022-10-29T08:08:39.905Z,19.49
2022-10-29T08:09:39.834Z,19.70
2022-10-29T08:10:39.829Z,20.15
2022-10-29T08:11:39.861Z,20.41
2022-10-29T08:12:39.816Z,20.60
2022-10-29T08:13:39.823Z,20.79
2022-10-29T08:14:39.832Z,20.94
2022-10-29T08:15:39.803Z,21.06
2022-10-29T08:16:39.785Z,21.08
2022-10-29T08:17:39.746Z,21.28
2022-10-29T08:18:39.785Z,21.59
2022-10-29T08:19:39.743Z,22.01
2022-10-29T08:20:39.822Z,22.02
2022-10-29T08:21:39.729Z,21.83
2022-10-29T08:22:39.746Z,21.19
2022-10-29T08:23:39.706Z,20.96
2022-10-29T08:24:39.701Z,21.08
2022-10-29T08:25:39.676Z,21.31
2022-10-29T08:26:39.706Z,21.61
2022-10-29T08:27:39.741Z,21.74
2022-10-29T08:28:39.646Z,21.31
2022-10-29T08:29:39.644Z,21.15
2022-10-29T08:30:39.603Z,21.33
2022-10-29T08:31:39.669Z,21.64
2022-10-29T08:32:39.586Z,21.81
2022-10-29T08:33:39.588Z,22.09
2022-10-29T08:34:39.692Z,22.20
2022-10-29T08:35:39.589Z,22.09
2022-10-29T08:36:39.549Z,22.38
2022-10-29T08:37:39.530Z,22.59
2022-10-29T08:38:39.581Z,22.31
2022-10-29T08:39:39.506Z,22.44
2022-10-29T08:40:39.511Z,22.51
2022-10-29T08:41:39.530Z,22.51
2022-10-29T08:42:39.481Z,22.35
2022-10-29T08:43:44.566Z,22.31
2022-10-29T08:44:40.530Z,22.44
2022-10-29T08:45:39.482Z,22.14
2022-10-29T08:46:39.429Z,22.20
2022-10-29T08:47:39.414Z,22.21
2022-10-29T08:48:39.459Z,22.08
2022-10-29T08:49:39.397Z,21.93
2022-10-29T08:50:39.492Z,21.71
2022-10-29T08:51:39.429Z,21.56
2022-10-29T08:52:48.203Z,21.13
2022-10-29T08:53:40.447Z,21.51
2022-10-29T08:54:39.421Z,21.71
2022-10-29T08:55:39.355Z,21.96
2022-10-29T08:56:39.322Z,22.38
2022-10-29T08:57:39.369Z,22.42
2022-10-29T08:58:39.380Z,22.49
2022-10-29T08:59:39.292Z,22.33
2022-10-29T09:00:39.344Z,22.36
2022-10-29T09:01:39.446Z,22.29
2022-10-29T09:02:39.295Z,22.14
2022-10-29T09:03:39.269Z,22.19
2022-10-29T09:04:39.275Z,21.99
2022-10-29T09:05:39.237Z,21.68
2022-10-29T09:06:39.479Z,21.85
2022-10-29T09:07:39.366Z,22.04
2022-10-29T09:08:39.298Z,22.35
2022-10-29T09:09:39.225Z,22.67
2022-10-29T09:10:39.164Z,23.15
2022-10-29T09:11:39.150Z,22.79
2022-10-29T09:12:39.155Z,22.66
2022-10-29T09:13:39.237Z,22.27
2022-10-29T09:14:39.190Z,22.27
2022-10-29T09:15:39.118Z,22.35
2022-10-29T09:17:39.084Z,22.48
2022-10-29T09:18:39.119Z,22.72
2022-10-29T09:19:39.124Z,22.72
2022-10-29T09:20:39.106Z,23.32
2022-10-29T09:21:39.073Z,23.78
2022-10-29T09:22:39.088Z,23.94
2022-10-29T09:23:39.063Z,24.00
2022-10-29T09:24:39.009Z,24.12
2022-10-29T09:25:39.063Z,24.19
2022-10-29T09:26:38.985Z,23.78
2022-10-29T09:27:39.015Z,23.25
2022-10-29T09:28:38.980Z,23.44
2022-10-29T09:29:38.984Z,23.38
2022-10-29T09:30:39.245Z,23.59
2022-10-29T09:31:38.970Z,23.89
2022-10-29T09:32:39.004Z,24.12
2022-10-29T09:33:39.014Z,24.21
2022-10-29T09:34:38.969Z,24.33
2022-10-29T09:35:39.079Z,23.84
2022-10-29T09:36:38.957Z,23.57
2022-10-29T09:37:38.913Z,23.62
2022-10-29T09:38:38.995Z,23.94
2022-10-29T09:39:38.901Z,24.19
2022-10-29T09:40:39.048Z,24.18
2022-10-29T09:41:38.834Z,24.30
2022-10-29T09:42:38.936Z,24.80
2022-10-29T09:43:38.837Z,25.31
2022-10-29T09:44:38.909Z,25.46
2022-10-29T09:45:38.912Z,25.26
2022-10-29T09:46:38.768Z,24.83
2022-10-29T09:47:38.812Z,24.19
2022-10-29T09:48:38.782Z,23.74
2022-10-29T09:49:38.808Z,23.71
2022-10-29T09:50:38.738Z,23.52
2022-10-29T09:51:38.996Z,23.89
2022-10-29T09:52:38.784Z,24.44
2022-10-29T09:53:38.883Z,24.83
2022-10-29T09:54:38.720Z,25.16
2022-10-29T09:55:38.695Z,24.94
2022-10-29T09:56:38.680Z,24.86
2022-10-29T09:57:38.765Z,24.80
2022-10-29T09:58:38.703Z,24.90
2022-10-29T09:59:38.744Z,25.23
2022-10-29T10:00:38.646Z,25.64
2022-10-29T10:01:38.717Z,26.01
2022-10-29T10:02:38.679Z,26.41
2022-10-29T10:03:38.684Z,26.23
2022-10-29T10:04:38.580Z,25.74
2022-10-29T10:05:38.584Z,25.69
2022-10-29T10:06:40.620Z,26.13
2022-10-29T10:07:38.540Z,26.01
2022-10-29T10:08:38.851Z,25.91
2022-10-29T10:09:38.582Z,26.34
2022-10-29T10:10:38.589Z,26.44
2022-10-29T10:11:38.680Z,26.38
2022-10-29T10:12:38.506Z,26.12
2022-10-29T10:13:38.534Z,26.12
2022-10-29T10:14:38.565Z,25.82
2022-10-29T10:15:38.514Z,25.60
2022-10-29T10:16:38.569Z,25.44
2022-10-29T10:17:38.476Z,25.12
2022-10-29T10:18:38.565Z,25.39
2022-10-29T10:19:38.431Z,25.51
2022-10-29T10:20:38.519Z,25.35
2022-10-29T10:21:38.405Z,25.69
2022-10-29T10:22:38.394Z,25.94
2022-10-29T10:23:38.397Z,26.27
2022-10-29T10:24:38.441Z,26.13
2022-10-29T10:25:38.396Z,25.94
2022-10-29T10:26:38.469Z,25.94
2022-10-29T10:27:38.344Z,25.98
2022-10-29T10:28:38.356Z,26.16
2022-10-29T10:29:38.333Z,25.93
2022-10-29T10:30:38.305Z,25.85
2022-10-29T10:31:38.307Z,25.96
2022-10-29T10:32:38.435Z,26.38
2022-10-29T10:33:38.327Z,26.64
2022-10-29T10:34:38.323Z,26.53
2022-10-29T10:35:38.333Z,26.69
2022-10-29T10:36:38.289Z,26.68
2022-10-29T10:37:38.374Z,26.34
2022-10-29T10:38:38.417Z,26.32
2022-10-29T10:39:38.248Z,26.28
2022-10-29T10:40:38.259Z,26.60
2022-10-29T10:41:38.277Z,27.01
2022-10-29T10:42:38.203Z,26.97
2022-10-29T10:43:38.271Z,26.71
2022-10-29T10:44:38.225Z,26.12
2022-10-29T10:45:38.145Z,26.11
2022-10-29T10:46:38.195Z,26.31
2022-10-29T10:47:38.122Z,26.03
2022-10-29T10:48:38.152Z,25.48
2022-10-29T10:49:38.142Z,25.61
2022-10-29T10:50:38.120Z,25.82
2022-10-29T10:51:38.212Z,26.00
2022-10-29T10:52:38.087Z,25.93
2022-10-29T10:53:38.116Z,26.21
2022-10-29T10:54:38.183Z,25.91
2022-10-29T10:55:38.062Z,26.04
2022-10-29T10:56:38.148Z,25.90
2022-10-29T10:57:38.039Z,25.91
2022-10-29T10:58:38.039Z,25.46
2022-10-29T10:59:38.006Z,25.48
2022-10-29T11:00:38.071Z,25.98
2022-10-29T11:01:38.236Z,26.38
2022-10-29T11:02:38.022Z,26.17
2022-10-29T11:03:38.012Z,26.42
2022-10-29T11:04:38.046Z,25.96
2022-10-29T11:05:37.929Z,25.93
2022-10-29T11:06:37.932Z,26.31
2022-10-29T11:07:37.947Z,26.31
2022-10-29T11:08:37.932Z,26.19
2022-10-29T11:09:39.001Z,26.06
2022-10-29T11:10:37.907Z,26.28
2022-10-29T11:11:37.928Z,26.42
2022-10-29T11:12:37.867Z,26.56
2022-10-29T11:13:37.924Z,26.42
2022-10-29T11:14:37.859Z,25.94
2022-10-29T11:15:37.902Z,25.91
2022-10-29T11:16:37.855Z,26.03
2022-10-29T11:17:37.892Z,25.94
2022-10-29T11:18:37.900Z,26.24
2022-10-29T11:19:37.787Z,26.32
2022-10-29T11:20:38.007Z,25.94
2022-10-29T11:21:37.886Z,25.44
2022-10-29T11:22:37.752Z,25.20
2022-10-29T11:23:37.760Z,25.07
2022-10-29T11:24:37.857Z,25.35
2022-10-29T11:25:37.757Z,25.39
2022-10-29T11:26:37.743Z,25.26
2022-10-29T11:27:37.857Z,25.57
2022-10-29T11:28:37.747Z,25.94
2022-10-29T11:29:37.716Z,25.72
2022-10-29T11:30:37.731Z,25.64
2022-10-29T11:31:37.779Z,25.97
2022-10-29T11:32:37.670Z,26.13
2022-10-29T11:33:37.693Z,26.08
2022-10-29T11:34:37.648Z,26.16
2022-10-29T11:35:37.644Z,26.09
2022-10-29T11:36:37.646Z,26.03
2022-10-29T11:37:37.602Z,26.04
2022-10-29T11:38:37.727Z,26.29
2022-10-29T11:39:37.622Z,26.51
2022-10-29T11:40:39.103Z,26.81
2022-10-29T11:41:37.680Z,27.16
2022-10-29T11:42:37.556Z,27.35
2022-10-29T11:43:37.568Z,27.55
2022-10-29T11:44:37.646Z,27.27
2022-10-29T11:45:37.568Z,27.21
2022-10-29T11:46:38.062Z,27.34
2022-10-29T11:47:37.512Z,27.35
2022-10-29T11:48:37.490Z,27.38
2022-10-29T11:49:37.504Z,27.71
2022-10-29T11:50:37.487Z,28.02
2022-10-29T11:51:37.569Z,28.15
2022-10-29T11:52:37.479Z,27.87
2022-10-29T11:53:37.474Z,27.95
2022-10-29T11:54:37.440Z,27.93
2022-10-29T11:55:37.654Z,27.91
2022-10-29T11:56:37.431Z,27.98
2022-10-29T11:57:37.418Z,27.84
2022-10-29T11:58:40.547Z,28.09
2022-10-29T11:59:37.371Z,28.20
2022-10-29T12:00:37.362Z,28.50
2022-10-29T12:01:37.548Z,28.76
2022-10-29T12:02:37.364Z,28.72
2022-10-29T12:03:37.423Z,28.87
2022-10-29T12:04:37.393Z,28.98
2022-10-29T12:05:37.674Z,28.73
2022-10-29T12:06:37.438Z,28.52
2022-10-29T12:07:37.297Z,28.50
2022-10-29T12:08:37.478Z,28.23
2022-10-29T12:09:37.290Z,27.58
2022-10-29T12:10:37.295Z,27.12
2022-10-29T12:11:42.928Z,26.94
2022-10-29T12:12:38.281Z,26.73
2022-10-29T12:13:37.261Z,26.94
2022-10-29T12:14:37.219Z,26.53
2022-10-29T12:15:37.246Z,26.28
2022-10-29T12:16:37.204Z,26.28
2022-10-29T12:17:37.208Z,26.31
2022-10-29T12:18:37.278Z,26.27
2022-10-29T12:19:37.161Z,26.29
2022-10-29T12:20:37.185Z,26.20
2022-10-29T12:21:37.147Z,26.01
2022-10-29T12:22:37.186Z,25.90
2022-10-29T12:23:37.138Z,25.81
2022-10-29T12:24:37.128Z,25.79
2022-10-29T12:25:37.079Z,25.67
2022-10-29T12:26:37.126Z,25.57
2022-10-29T12:27:37.135Z,25.60
2022-10-29T12:28:37.102Z,25.54
2022-10-29T12:29:37.062Z,25.59
2022-10-29T12:30:37.023Z,25.63
2022-10-29T12:31:37.004Z,25.71
2022-10-29T12:32:37.024Z,25.78
2022-10-29T12:33:37.040Z,25.83
2022-10-29T12:34:36.968Z,26.04
2022-10-29T12:35:36.975Z,26.01
2022-10-29T12:36:36.987Z,26.08
2022-10-29T12:37:36.947Z,26.20
2022-10-29T12:38:36.967Z,26.46
2022-10-29T12:39:36.950Z,26.60
2022-10-29T12:40:37.097Z,26.68
2022-10-29T12:41:36.981Z,26.73
2022-10-29T12:42:36.910Z,26.78
2022-10-29T12:43:37.194Z,26.78
2022-10-29T12:44:39.966Z,26.91
2022-10-29T12:45:53.026Z,26.81
2022-10-29T12:46:37.914Z,26.72
2022-10-29T12:47:36.858Z,26.53
2022-10-29T12:48:36.905Z,26.56
2022-10-29T12:49:36.895Z,26.68
2022-10-29T12:50:36.840Z,26.71
2022-10-29T12:51:36.834Z,26.64
2022-10-29T12:52:36.823Z,26.50
2022-10-29T12:53:36.857Z,26.65
2022-10-29T12:54:36.791Z,26.88
2022-10-29T12:55:36.777Z,26.84
2022-10-29T12:56:36.770Z,26.68
2022-10-29T12:57:36.823Z,26.94
2022-10-29T12:58:36.855Z,27.12
2022-10-29T12:59:36.753Z,27.06
2022-10-29T13:00:36.809Z,26.96
2022-10-29T13:02:05.382Z,26.91
2022-10-29T13:02:37.850Z,26.75
2022-10-29T13:03:42.166Z,26.38
2022-10-29T13:04:37.679Z,26.21
2022-10-29T13:05:36.665Z,26.27
2022-10-29T13:06:36.654Z,26.51